Flight Track Log - Related Links

Times and Time Zones

All times are in EDT time to prevent confusion due to time zone crossing. See the SWA378 flight status page for this flight to view local times or setup timezone preferences in your user account.

Time Position Orientation Groundspeed Altitude Reporting Facility
EDT Latitude Longitude Course Direction KTS MPH feet Rate Location/Type
Fri 08:20:24 PM 36.9181 -76.1789 37° Northeast 145 167 1,700  Level Washington Center
Fri 08:20:54 PM 36.9389 -76.1869 343° North 220 253 3,400 3,100 Climbing Washington Center
Fri 08:21:24 PM 36.9533 -76.2183 300° West 232 267 4,800 3,363 Climbing Washington Center
Fri 08:22:25 PM 36.9906 -76.3044 298° West 257 296 8,500 3,782 Climbing Washington Center
Fri 08:23:23 PM 37.0336 -76.4011 299° West 291 335 12,300 3,630 Climbing Washington Center
Fri 08:24:24 PM 37.0789 -76.5133 297° West 331 381 15,700 1,869 Climbing Washington Center
Fri 08:25:25 PM 37.1239 -76.6261 297° West 355 409 16,100 202 Climbing Washington Center
Fri 08:26:23 PM 37.1708 -76.7361 298° West 360 414 16,100  Level Washington Center
Fri 08:27:24 PM 37.2156 -76.8464 297° West 360 414 16,100  Level Washington Center
Fri 08:28:25 PM 37.2622 -76.9592 297° West 365 420 16,100  Level Washington Center
Fri 08:29:25 PM 37.3050 -77.0592 298° West 359 413 16,100  Level Washington Center
Fri 08:30:24 PM 37.3683 -77.1675 306° West 359 413 16,100  Level Washington Center
Fri 08:31:24 PM 37.4422 -77.2503 318° Northwest 354 407 16,100  Level Washington Center
Fri 08:32:25 PM 37.5142 -77.3331 318° Northwest 349 402 16,100 -51 Level Washington Center
Fri 08:33:22 PM 37.5900 -77.4133 320° Northwest 349 402 16,000  Descending Washington Center
Fri 08:34:23 PM 37.6772 -77.4442 344° North 334 384 16,100 50 Climbing Washington Center
Fri 08:35:23 PM 37.7711 -77.4386 North 323 372 16,100  Level Washington Center
Fri 08:36:24 PM 37.8672 -77.4331 North 329 379 16,100  Level Washington Center
Fri 08:37:25 PM 37.9611 -77.4275 North 334 384 16,100  Level Washington Center
Fri 08:38:24 PM 38.0408 -77.4003 15° North 328 377 16,100  Level Washington Center
Fri 08:39:25 PM 38.1208 -77.3389 31° Northeast 328 377 16,100  Level Washington Center
Fri 08:40:25 PM 38.2011 -77.2775 31° Northeast 328 377 16,100  Level Washington Center
Fri 08:41:23 PM 38.2811 -77.2158 31° Northeast 328 377 16,100 -353 Level Washington Center
Fri 08:42:24 PM 38.3611 -77.1539 31° Northeast 333 383 15,400 -694 Descending Washington Center
Fri 08:43:24 PM 38.4331 -77.0758 40° Northeast 333 383 14,700 -1,438 Descending Washington Center
Fri 08:44:25 PM 38.4964 -77.0003 43° Northeast 328 377 12,500 -1,339 Descending Washington Center
Fri 08:45:25 PM 38.5619 -76.9219 43° Northeast 317 365 12,000 -950 Descending Washington Center
Fri 08:46:25 PM 38.6233 -76.8433 45° Northeast 307 353 10,600 -1,271 Descending Washington Center
Fri 08:47:23 PM 38.6825 -76.7697 44° Northeast 300 345 9,500 -1,104 Descending Washington Center
Fri 08:49:08 PM 38.7667 -76.6167 55° Northeast 266 306 7,600 -1,236 Descending Potomac TRACON
Fri 08:50:08 PM 38.8000 -76.5333 63° Northeast 265 305 6,100 -1,240 Descending Potomac TRACON
Fri 08:51:09 PM 38.8833 -76.5500 351° North 277 319 5,100 -545 Descending Potomac TRACON
Fri 08:52:09 PM 38.9500 -76.5833 339° North 271 312 5,000 -53 Descending Potomac TRACON
Fri 08:53:03 PM 39.0000 -76.6500 314° West 284 327 5,000  Level Potomac TRACON
Fri 08:54:10 PM 39.0333 -76.7333 297° West 229 264 5,000 -378 Level Potomac TRACON
Fri 08:55:10 PM 39.0667 -76.7833 311° West 207 238 4,200 -800 Descending Potomac TRACON
Fri 08:56:10 PM 39.0833 -76.8500 288° West 193 222 3,400 -600 Descending Potomac TRACON
Fri 08:57:10 PM 39.1000 -76.9167 288° West 193 222 3,000 -200 Descending Potomac TRACON
Fri 08:58:10 PM 39.1333 -76.9667 311° West 181 208 3,000  Level Potomac TRACON
Fri 08:59:11 PM 39.1667 -76.9667 360° North 151 174 3,000  Level Potomac TRACON
Fri 09:00:11 PM 39.1833 -76.9167 67° East 142 163 3,000 -95 Level Potomac TRACON
Fri 09:01:17 PM 39.1833 -76.8667 90° East 142 163 2,800 -450 Descending Potomac TRACON
Fri 09:02:11 PM 39.1833 -76.8167 90° East 147 169 2,100 -800 Descending Potomac TRACON
Fri 09:03:17 PM 39.1833 -76.7667 90° East 124 143 1,200 -700 Descending Potomac TRACON
Fri 09:04:11 PM 39.1833 -76.7167 90° East 121 139 700 -556 Descending Potomac TRACON

Login

Don't have an account? Register now (free) for customized features, flight alerts, and more!